EXS741K EGNT-GCTS
Flight info
| Callsign | EXS741K |
|---|---|
| Flight time | 4h 29m |
| Altitude | 37000 |
| Route | GIRLI P18 GASKO P16 RIBEL DCT GUNTU UL70 PENIL M144 BAGSO DCT CML DCT KOMAG/M079F370 DCT OMOKO T16 NAVIX/N0452F370 DCT KICAS DCT IRSAN DCT ORTIS |
| Aircraft | B738/M-SDE2E3FGHIRWXY/LB1 |
Departure
| Time | 2026-05-05 14:42 |
|---|---|
| Airport | Newcastle International Airport (EGNT) |
Arrival
| Time | 2026-05-05 19:11 |
|---|---|
| Airport | Tenerife Sur Airport (GCTS) |
| Time | Latitude | Longitude | Altitude | Speed | Heading |
|---|---|---|---|---|---|
| 2026-05-05 14:11 | 55.03731 | -1.70671 | 266 ft | 0 kts | 184° |
| 2026-05-05 14:35 | 55.03733 | -1.70671 | 266 ft | 2 kts | 184° |
| 2026-05-05 14:36 | 55.03757 | -1.70667 | 266 ft | 2 kts | 184° |
| 2026-05-05 14:36 | 55.03779 | -1.70666 | 266 ft | 4 kts | 174° |
| 2026-05-05 14:36 | 55.03802 | -1.70678 | 266 ft | 4 kts | 124° |
| 2026-05-05 14:36 | 55.03808 | -1.70716 | 266 ft | 4 kts | 94° |
| 2026-05-05 14:37 | 55.03808 | -1.70733 | 266 ft | 0 kts | 94° |
| 2026-05-05 14:39 | 55.03808 | -1.70727 | 266 ft | 3 kts | 94° |
| 2026-05-05 14:39 | 55.03805 | -1.70647 | 266 ft | 10 kts | 94° |
| 2026-05-05 14:39 | 55.03800 | -1.70509 | 266 ft | 12 kts | 94° |
| 2026-05-05 14:39 | 55.03742 | -1.70436 | 266 ft | 12 kts | 189° |
| 2026-05-05 14:40 | 55.03654 | -1.70443 | 266 ft | 13 kts | 182° |
| 2026-05-05 14:40 | 55.03594 | -1.70542 | 266 ft | 13 kts | 262° |
| 2026-05-05 14:40 | 55.03536 | -1.70642 | 266 ft | 14 kts | 182° |
| 2026-05-05 14:40 | 55.03437 | -1.70646 | 267 ft | 14 kts | 181° |
| 2026-05-05 14:41 | 55.03385 | -1.70536 | 266 ft | 14 kts | 85° |
| 2026-05-05 14:41 | 55.03394 | -1.70484 | 266 ft | 0 kts | 65° |
| 2026-05-05 14:41 | 55.03453 | -1.70257 | 264 ft | 54 kts | 65° |
| 2026-05-05 14:41 | 55.03710 | -1.69285 | 254 ft | 120 kts | 66° |
| 2026-05-05 14:42 | 55.04140 | -1.67715 | 425 ft | 155 kts | 62° |
| 2026-05-05 14:42 | 55.04621 | -1.65945 | 1122 ft | 166 kts | 62° |
| 2026-05-05 14:42 | 55.05093 | -1.64096 | 1964 ft | 169 kts | 62° |
| 2026-05-05 14:42 | 55.05584 | -1.62147 | 2463 ft | 186 kts | 61° |
| 2026-05-05 14:43 | 55.06123 | -1.59991 | 2840 ft | 199 kts | 63° |
| 2026-05-05 14:43 | 55.06570 | -1.57701 | 3402 ft | 203 kts | 79° |
| 2026-05-05 14:43 | 55.06341 | -1.55163 | 3682 ft | 230 kts | 114° |
| 2026-05-05 14:43 | 55.05225 | -1.52956 | 3927 ft | 259 kts | 144° |
| 2026-05-05 14:44 | 55.03498 | -1.51830 | 4346 ft | 275 kts | 175° |
| 2026-05-05 14:44 | 55.01563 | -1.52095 | 4980 ft | 274 kts | 191° |
| 2026-05-05 14:44 | 54.99781 | -1.52600 | 6248 ft | 251 kts | 189° |
| 2026-05-05 14:44 | 54.98047 | -1.52887 | 6801 ft | 255 kts | 190° |
| 2026-05-05 14:45 | 54.96373 | -1.54087 | 6999 ft | 270 kts | 217° |
| 2026-05-05 14:45 | 54.94782 | -1.55909 | 7557 ft | 276 kts | 214° |
| 2026-05-05 14:45 | 54.93134 | -1.57678 | 8220 ft | 280 kts | 214° |
| 2026-05-05 14:45 | 54.91469 | -1.59425 | 8952 ft | 280 kts | 214° |
| 2026-05-05 14:46 | 54.89796 | -1.61163 | 9660 ft | 282 kts | 214° |
| 2026-05-05 14:46 | 54.88100 | -1.62917 | 10282 ft | 286 kts | 214° |
| 2026-05-05 14:46 | 54.86340 | -1.64733 | 10488 ft | 305 kts | 213° |
| 2026-05-05 14:46 | 54.84456 | -1.66673 | 10653 ft | 324 kts | 213° |
| 2026-05-05 14:47 | 54.82463 | -1.68717 | 10908 ft | 339 kts | 213° |
| 2026-05-05 14:47 | 54.80417 | -1.70808 | 11472 ft | 344 kts | 213° |
| 2026-05-05 14:47 | 54.78354 | -1.72911 | 12116 ft | 346 kts | 213° |
| 2026-05-05 14:47 | 54.76267 | -1.75039 | 12788 ft | 348 kts | 213° |
| 2026-05-05 14:48 | 54.74169 | -1.77176 | 13491 ft | 351 kts | 213° |
| 2026-05-05 14:48 | 54.72085 | -1.79294 | 14129 ft | 353 kts | 212° |
| 2026-05-05 14:48 | 54.69798 | -1.80912 | 14727 ft | 361 kts | 194° |
| 2026-05-05 14:48 | 54.67300 | -1.81657 | 15401 ft | 364 kts | 192° |
| 2026-05-05 14:49 | 54.64794 | -1.82378 | 16013 ft | 367 kts | 192° |
| 2026-05-05 14:49 | 54.63118 | -1.82878 | 16422 ft | 369 kts | 193° |
| 2026-05-05 14:49 | 54.60571 | -1.83664 | 17045 ft | 372 kts | 193° |
| 2026-05-05 14:49 | 54.58022 | -1.84471 | 17671 ft | 374 kts | 193° |
| 2026-05-05 14:50 | 54.55449 | -1.85291 | 18282 ft | 377 kts | 193° |
| 2026-05-05 14:50 | 54.52008 | -1.86379 | 18992 ft | 381 kts | 193° |
| 2026-05-05 14:50 | 54.50272 | -1.86923 | 19370 ft | 382 kts | 193° |
| 2026-05-05 14:50 | 54.47646 | -1.87743 | 19914 ft | 384 kts | 193° |
| 2026-05-05 14:51 | 54.45013 | -1.88566 | 20444 ft | 386 kts | 193° |
| 2026-05-05 14:51 | 54.42363 | -1.89393 | 20959 ft | 388 kts | 193° |
| 2026-05-05 14:51 | 54.39700 | -1.90226 | 21483 ft | 390 kts | 193° |
| 2026-05-05 14:51 | 54.37010 | -1.91069 | 21994 ft | 393 kts | 194° |
| 2026-05-05 14:52 | 54.34311 | -1.91915 | 22494 ft | 395 kts | 193° |
| 2026-05-05 14:52 | 54.31596 | -1.92764 | 23002 ft | 397 kts | 193° |
| 2026-05-05 14:52 | 54.28872 | -1.93615 | 23488 ft | 400 kts | 194° |
| 2026-05-05 14:52 | 54.26131 | -1.94487 | 23888 ft | 401 kts | 196° |
| 2026-05-05 14:53 | 54.23517 | -1.95940 | 24273 ft | 399 kts | 207° |
| 2026-05-05 14:53 | 54.21077 | -1.98207 | 24547 ft | 402 kts | 215° |
| 2026-05-05 14:53 | 54.18875 | -2.01197 | 24783 ft | 405 kts | 224° |
| 2026-05-05 14:53 | 54.16831 | -2.04523 | 25185 ft | 406 kts | 225° |
| 2026-05-05 14:54 | 54.14787 | -2.07874 | 25592 ft | 408 kts | 225° |
| 2026-05-05 14:54 | 54.12724 | -2.11234 | 25951 ft | 410 kts | 225° |
| 2026-05-05 14:54 | 54.10648 | -2.14582 | 26349 ft | 411 kts | 224° |
| 2026-05-05 14:54 | 54.08589 | -2.17878 | 26738 ft | 412 kts | 224° |
| 2026-05-05 14:55 | 54.06490 | -2.21228 | 27055 ft | 415 kts | 224° |
| 2026-05-05 14:55 | 54.04373 | -2.24595 | 27366 ft | 418 kts | 224° |
| 2026-05-05 14:55 | 54.02244 | -2.27980 | 27677 ft | 420 kts | 225° |
| 2026-05-05 14:55 | 54.00228 | -2.31594 | 28002 ft | 422 kts | 231° |
| 2026-05-05 14:56 | 53.98367 | -2.35471 | 28317 ft | 423 kts | 232° |
| 2026-05-05 14:56 | 53.96529 | -2.39414 | 28595 ft | 426 kts | 232° |
| 2026-05-05 14:56 | 53.94685 | -2.43385 | 28705 ft | 433 kts | 232° |
| 2026-05-05 14:56 | 53.92804 | -2.47405 | 28977 ft | 435 kts | 232° |
| 2026-05-05 14:57 | 53.90906 | -2.51426 | 29322 ft | 436 kts | 231° |
| 2026-05-05 14:57 | 53.89017 | -2.55397 | 29633 ft | 438 kts | 231° |
| 2026-05-05 14:57 | 53.87093 | -2.59419 | 29891 ft | 440 kts | 231° |
| 2026-05-05 14:57 | 53.85155 | -2.63455 | 30184 ft | 441 kts | 231° |
| 2026-05-05 14:58 | 53.83223 | -2.67471 | 30622 ft | 437 kts | 231° |
| 2026-05-05 14:58 | 53.81308 | -2.71446 | 31038 ft | 434 kts | 231° |
| 2026-05-05 14:58 | 53.79399 | -2.75402 | 31344 ft | 434 kts | 231° |
| 2026-05-05 14:58 | 53.77489 | -2.79355 | 31599 ft | 435 kts | 231° |
| 2026-05-05 14:59 | 53.75572 | -2.83316 | 31883 ft | 435 kts | 231° |
| 2026-05-05 14:59 | 53.73658 | -2.87265 | 32217 ft | 433 kts | 231° |
| 2026-05-05 14:59 | 53.71771 | -2.91153 | 32532 ft | 432 kts | 231° |
| 2026-05-05 14:59 | 53.69854 | -2.95098 | 32796 ft | 432 kts | 231° |
| 2026-05-05 15:00 | 53.67946 | -2.99018 | 33023 ft | 433 kts | 231° |
| 2026-05-05 15:00 | 53.66674 | -3.01629 | 33122 ft | 436 kts | 231° |
| 2026-05-05 15:00 | 53.64112 | -3.06878 | 33689 ft | 430 kts | 231° |
| 2026-05-05 15:00 | 53.62217 | -3.10763 | 33981 ft | 430 kts | 232° |
| 2026-05-05 15:01 | 53.60659 | -3.15062 | 34016 ft | 434 kts | 248° |
| 2026-05-05 15:01 | 53.59821 | -3.19868 | 34204 ft | 434 kts | 260° |
| 2026-05-05 15:01 | 53.59632 | -3.24742 | 34445 ft | 433 kts | 273° |
| 2026-05-05 15:01 | 53.59880 | -3.29794 | 34669 ft | 433 kts | 274° |
| 2026-05-05 15:02 | 53.60159 | -3.34858 | 34823 ft | 434 kts | 274° |
| 2026-05-05 15:02 | 53.60425 | -3.39914 | 35002 ft | 434 kts | 274° |
| 2026-05-05 15:02 | 53.60628 | -3.44043 | 35202 ft | 433 kts | 274° |
| 2026-05-05 15:02 | 53.60811 | -3.47996 | 35381 ft | 432 kts | 274° |
| 2026-05-05 15:03 | 53.61015 | -3.52626 | 35520 ft | 433 kts | 274° |
| 2026-05-05 15:03 | 53.61232 | -3.57685 | 35656 ft | 434 kts | 274° |
| 2026-05-05 15:03 | 53.61438 | -3.62530 | 35866 ft | 433 kts | 274° |
| 2026-05-05 15:03 | 53.61651 | -3.67579 | 36110 ft | 432 kts | 274° |
| 2026-05-05 15:04 | 53.61865 | -3.72570 | 36312 ft | 431 kts | 274° |
| 2026-05-05 15:04 | 53.62086 | -3.77678 | 36445 ft | 432 kts | 274° |
| 2026-05-05 15:04 | 53.62301 | -3.82663 | 36581 ft | 433 kts | 274° |
| 2026-05-05 15:04 | 53.62517 | -3.87711 | 36758 ft | 432 kts | 274° |
| 2026-05-05 15:05 | 53.62936 | -3.97823 | 37027 ft | 433 kts | 274° |
| 2026-05-05 15:05 | 53.63137 | -4.02897 | 37025 ft | 436 kts | 274° |
| 2026-05-05 15:06 | 53.63531 | -4.13082 | 37033 ft | 434 kts | 273° |
| 2026-05-05 15:06 | 53.63910 | -4.23189 | 37042 ft | 431 kts | 273° |
| 2026-05-05 15:07 | 53.64278 | -4.33212 | 37029 ft | 429 kts | 273° |
| 2026-05-05 15:07 | 53.64633 | -4.43230 | 37034 ft | 427 kts | 273° |
| 2026-05-05 15:08 | 53.64978 | -4.53201 | 37040 ft | 425 kts | 273° |
| 2026-05-05 15:08 | 53.65316 | -4.63140 | 37052 ft | 425 kts | 273° |
| 2026-05-05 15:09 | 53.65645 | -4.73026 | 37046 ft | 425 kts | 273° |
| 2026-05-05 15:09 | 53.65969 | -4.82993 | 37057 ft | 426 kts | 273° |
| 2026-05-05 15:10 | 53.66296 | -4.92967 | 37055 ft | 427 kts | 273° |
| 2026-05-05 15:10 | 53.66625 | -5.02932 | 37064 ft | 428 kts | 273° |
| 2026-05-05 15:11 | 53.66946 | -5.12948 | 37065 ft | 429 kts | 272° |
| 2026-05-05 15:11 | 53.67248 | -5.23010 | 37061 ft | 430 kts | 272° |
| 2026-05-05 15:12 | 53.67534 | -5.33089 | 37067 ft | 431 kts | 272° |
| 2026-05-05 15:12 | 53.67795 | -5.43183 | 37059 ft | 432 kts | 268° |
| 2026-05-05 15:12 | 53.67334 | -5.48161 | 37061 ft | 431 kts | 251° |
| 2026-05-05 15:13 | 53.66092 | -5.52755 | 37059 ft | 433 kts | 238° |
| 2026-05-05 15:13 | 53.64211 | -5.56715 | 37076 ft | 434 kts | 227° |
| 2026-05-05 15:13 | 53.62071 | -5.60308 | 37060 ft | 435 kts | 226° |
| 2026-05-05 15:14 | 53.57718 | -5.67398 | 37062 ft | 436 kts | 225° |
| 2026-05-05 15:14 | 53.53370 | -5.74518 | 37064 ft | 436 kts | 226° |
| 2026-05-05 15:15 | 53.49072 | -5.81631 | 37061 ft | 437 kts | 226° |
| 2026-05-05 15:15 | 53.44748 | -5.88804 | 37066 ft | 437 kts | 226° |
| 2026-05-05 15:16 | 53.40420 | -5.95971 | 37077 ft | 437 kts | 226° |
| 2026-05-05 15:16 | 53.36088 | -6.03119 | 37072 ft | 437 kts | 226° |
| 2026-05-05 15:17 | 53.31749 | -6.10258 | 37074 ft | 437 kts | 226° |
| 2026-05-05 15:17 | 53.27416 | -6.17364 | 37067 ft | 436 kts | 226° |
| 2026-05-05 15:18 | 53.23078 | -6.24456 | 37072 ft | 436 kts | 226° |
| 2026-05-05 15:18 | 53.18742 | -6.31525 | 37073 ft | 435 kts | 226° |
| 2026-05-05 15:19 | 53.14410 | -6.38565 | 37075 ft | 435 kts | 226° |
| 2026-05-05 15:19 | 53.10073 | -6.45593 | 37070 ft | 435 kts | 226° |
| 2026-05-05 15:20 | 53.05730 | -6.52609 | 37064 ft | 435 kts | 225° |
| 2026-05-05 15:20 | 53.01388 | -6.59605 | 37070 ft | 435 kts | 225° |
| 2026-05-05 15:21 | 52.97033 | -6.66598 | 37061 ft | 436 kts | 225° |
| 2026-05-05 15:21 | 52.92674 | -6.73580 | 37060 ft | 436 kts | 225° |
| 2026-05-05 15:22 | 52.88305 | -6.80555 | 37066 ft | 436 kts | 225° |
| 2026-05-05 15:22 | 52.83925 | -6.87528 | 37053 ft | 437 kts | 225° |
| 2026-05-05 15:23 | 52.79538 | -6.94491 | 37052 ft | 437 kts | 225° |
| 2026-05-05 15:23 | 52.75172 | -7.01401 | 37053 ft | 438 kts | 225° |
| 2026-05-05 15:24 | 52.70768 | -7.08351 | 37056 ft | 438 kts | 225° |
| 2026-05-05 15:24 | 52.66360 | -7.15286 | 37051 ft | 439 kts | 225° |
| 2026-05-05 15:25 | 52.61938 | -7.22224 | 37058 ft | 439 kts | 225° |
| 2026-05-05 15:25 | 52.57506 | -7.29158 | 37059 ft | 439 kts | 225° |
| 2026-05-05 15:26 | 52.53073 | -7.36073 | 37042 ft | 440 kts | 225° |
| 2026-05-05 15:26 | 52.48633 | -7.42982 | 37059 ft | 440 kts | 225° |
| 2026-05-05 15:27 | 52.44190 | -7.49886 | 37059 ft | 440 kts | 225° |
| 2026-05-05 15:27 | 52.39795 | -7.56867 | 37063 ft | 440 kts | 226° |
| 2026-05-05 15:28 | 52.35412 | -7.63860 | 37063 ft | 440 kts | 225° |
| 2026-05-05 15:28 | 52.31019 | -7.70835 | 37069 ft | 440 kts | 225° |
| 2026-05-05 15:29 | 52.26618 | -7.77789 | 37058 ft | 440 kts | 225° |
| 2026-05-05 15:29 | 52.22210 | -7.84729 | 37064 ft | 440 kts | 225° |
| 2026-05-05 15:30 | 52.17827 | -7.91610 | 37063 ft | 440 kts | 225° |
| 2026-05-05 15:30 | 52.13418 | -7.98513 | 37066 ft | 440 kts | 225° |
| 2026-05-05 15:31 | 52.09003 | -8.05406 | 37070 ft | 440 kts | 225° |
| 2026-05-05 15:31 | 52.04589 | -8.12277 | 37068 ft | 440 kts | 225° |
| 2026-05-05 15:32 | 52.00163 | -8.19146 | 37069 ft | 440 kts | 225° |
| 2026-05-05 15:32 | 51.95737 | -8.25998 | 37064 ft | 440 kts | 225° |
| 2026-05-05 15:33 | 51.91305 | -8.32838 | 37068 ft | 440 kts | 225° |
| 2026-05-05 15:33 | 51.86871 | -8.39661 | 37073 ft | 440 kts | 225° |
| 2026-05-05 15:34 | 51.82421 | -8.46490 | 37077 ft | 441 kts | 225° |
| 2026-05-05 15:34 | 51.77971 | -8.53303 | 37077 ft | 441 kts | 225° |
| 2026-05-05 15:35 | 51.73510 | -8.60111 | 37078 ft | 442 kts | 225° |
| 2026-05-05 15:35 | 51.68857 | -8.66506 | 37081 ft | 443 kts | 219° |
| 2026-05-05 15:36 | 51.63975 | -8.72566 | 37073 ft | 443 kts | 219° |
| 2026-05-05 15:36 | 51.59079 | -8.78616 | 37083 ft | 444 kts | 219° |
| 2026-05-05 15:37 | 51.54197 | -8.84703 | 37081 ft | 444 kts | 219° |
| 2026-05-05 15:37 | 51.49325 | -8.90802 | 37084 ft | 444 kts | 219° |
| 2026-05-05 15:38 | 51.44446 | -8.96902 | 37081 ft | 445 kts | 219° |
| 2026-05-05 15:38 | 51.39564 | -9.02988 | 37089 ft | 445 kts | 219° |
| 2026-05-05 15:39 | 51.34682 | -9.09057 | 37090 ft | 445 kts | 219° |
| 2026-05-05 15:39 | 51.29790 | -9.15120 | 37091 ft | 445 kts | 219° |
| 2026-05-05 15:40 | 51.24898 | -9.21167 | 37094 ft | 445 kts | 219° |
| 2026-05-05 15:40 | 51.20005 | -9.27197 | 37088 ft | 444 kts | 219° |
| 2026-05-05 15:41 | 51.15144 | -9.33172 | 37088 ft | 444 kts | 219° |
| 2026-05-05 15:41 | 51.10251 | -9.39171 | 37102 ft | 444 kts | 219° |
| 2026-05-05 15:42 | 51.05348 | -9.45164 | 37096 ft | 444 kts | 219° |
| 2026-05-05 15:42 | 51.00445 | -9.51142 | 37100 ft | 444 kts | 219° |
| 2026-05-05 15:43 | 50.95538 | -9.57106 | 37104 ft | 444 kts | 219° |
| 2026-05-05 15:43 | 50.91459 | -9.62054 | 37092 ft | 445 kts | 219° |
| 2026-05-05 15:44 | 50.86545 | -9.67998 | 37100 ft | 445 kts | 219° |
| 2026-05-05 15:44 | 50.81623 | -9.73936 | 37097 ft | 445 kts | 219° |
| 2026-05-05 15:45 | 50.76696 | -9.79864 | 37103 ft | 445 kts | 219° |
| 2026-05-05 15:45 | 50.71763 | -9.85783 | 37100 ft | 445 kts | 219° |
| 2026-05-05 15:46 | 50.66825 | -9.91692 | 37103 ft | 446 kts | 219° |
| 2026-05-05 15:46 | 50.61881 | -9.97592 | 37104 ft | 446 kts | 219° |
| 2026-05-05 15:47 | 50.56932 | -10.03483 | 37104 ft | 446 kts | 218° |
| 2026-05-05 15:47 | 50.51975 | -10.09366 | 37111 ft | 446 kts | 218° |
| 2026-05-05 15:48 | 50.47049 | -10.15197 | 37104 ft | 446 kts | 218° |
| 2026-05-05 15:48 | 50.42091 | -10.21050 | 37106 ft | 446 kts | 218° |
| 2026-05-05 15:49 | 50.37128 | -10.26894 | 37109 ft | 446 kts | 218° |
| 2026-05-05 15:49 | 50.32168 | -10.32718 | 37109 ft | 446 kts | 218° |
| 2026-05-05 15:50 | 50.27200 | -10.38537 | 37122 ft | 446 kts | 218° |
| 2026-05-05 15:50 | 50.22234 | -10.44337 | 37106 ft | 446 kts | 218° |
| 2026-05-05 15:51 | 50.17259 | -10.50132 | 37115 ft | 446 kts | 218° |
| 2026-05-05 15:51 | 50.12287 | -10.55910 | 37121 ft | 446 kts | 218° |
| 2026-05-05 15:52 | 50.07308 | -10.61679 | 37117 ft | 446 kts | 218° |
| 2026-05-05 15:52 | 50.02323 | -10.67440 | 37125 ft | 447 kts | 218° |
| 2026-05-05 15:53 | 49.97326 | -10.73199 | 37127 ft | 447 kts | 218° |
| 2026-05-05 15:53 | 49.92327 | -10.78946 | 37126 ft | 448 kts | 218° |
| 2026-05-05 15:54 | 49.87318 | -10.84689 | 37124 ft | 448 kts | 218° |
| 2026-05-05 15:54 | 49.82301 | -10.90426 | 37126 ft | 448 kts | 218° |
| 2026-05-05 15:55 | 49.77314 | -10.96114 | 37124 ft | 449 kts | 218° |
| 2026-05-05 15:55 | 49.72281 | -11.01839 | 37129 ft | 449 kts | 218° |
| 2026-05-05 15:56 | 49.67245 | -11.07553 | 37131 ft | 449 kts | 218° |
| 2026-05-05 15:56 | 49.62201 | -11.13260 | 37131 ft | 450 kts | 218° |
| 2026-05-05 15:57 | 49.57152 | -11.18959 | 37129 ft | 450 kts | 218° |
| 2026-05-05 15:57 | 49.52099 | -11.24647 | 37137 ft | 450 kts | 218° |
| 2026-05-05 15:58 | 49.47041 | -11.30325 | 37129 ft | 450 kts | 218° |
| 2026-05-05 15:58 | 49.41981 | -11.35991 | 37143 ft | 450 kts | 218° |
| 2026-05-05 15:59 | 49.36917 | -11.41647 | 37135 ft | 450 kts | 218° |
| 2026-05-05 15:59 | 49.31848 | -11.47294 | 37143 ft | 450 kts | 218° |
| 2026-05-05 16:00 | 49.26775 | -11.52930 | 37143 ft | 451 kts | 218° |
| 2026-05-05 16:00 | 49.21700 | -11.58554 | 37146 ft | 451 kts | 218° |
| 2026-05-05 16:01 | 49.16620 | -11.64169 | 37146 ft | 451 kts | 218° |
| 2026-05-05 16:01 | 49.11566 | -11.69742 | 37146 ft | 451 kts | 218° |
| 2026-05-05 16:02 | 49.06477 | -11.75338 | 37146 ft | 451 kts | 218° |
| 2026-05-05 16:02 | 49.01386 | -11.80922 | 37144 ft | 451 kts | 218° |
| 2026-05-05 16:03 | 48.96286 | -11.86503 | 37145 ft | 452 kts | 218° |
| 2026-05-05 16:03 | 48.91178 | -11.92079 | 37145 ft | 452 kts | 218° |
| 2026-05-05 16:04 | 48.86071 | -11.97639 | 37158 ft | 452 kts | 217° |
| 2026-05-05 16:04 | 48.80518 | -12.02116 | 37174 ft | 456 kts | 202° |
| 2026-05-05 16:05 | 48.74542 | -12.05394 | 37158 ft | 457 kts | 201° |
| 2026-05-05 16:05 | 48.68555 | -12.08641 | 37154 ft | 457 kts | 201° |
| 2026-05-05 16:06 | 48.62582 | -12.11933 | 37158 ft | 457 kts | 202° |
| 2026-05-05 16:06 | 48.56622 | -12.15245 | 37157 ft | 456 kts | 202° |
| 2026-05-05 16:07 | 48.50705 | -12.18535 | 37150 ft | 456 kts | 202° |
| 2026-05-05 16:07 | 48.44752 | -12.21837 | 37161 ft | 456 kts | 202° |
| 2026-05-05 16:08 | 48.38801 | -12.25128 | 37158 ft | 456 kts | 202° |
| 2026-05-05 16:08 | 48.32849 | -12.28410 | 37167 ft | 456 kts | 202° |
| 2026-05-05 16:09 | 48.26894 | -12.31685 | 37164 ft | 456 kts | 202° |
| 2026-05-05 16:09 | 48.20937 | -12.34954 | 37167 ft | 456 kts | 202° |
| 2026-05-05 16:10 | 48.14972 | -12.38218 | 37166 ft | 456 kts | 202° |
| 2026-05-05 16:10 | 48.09004 | -12.41477 | 37171 ft | 456 kts | 202° |
| 2026-05-05 16:11 | 48.03036 | -12.44727 | 37157 ft | 457 kts | 202° |
| 2026-05-05 16:12 | 47.91088 | -12.51210 | 37171 ft | 457 kts | 202° |
| 2026-05-05 16:13 | 47.76184 | -12.59252 | 37171 ft | 457 kts | 202° |
| 2026-05-05 16:13 | 47.70206 | -12.62464 | 37170 ft | 457 kts | 202° |
| 2026-05-05 16:14 | 47.58246 | -12.68867 | 37164 ft | 457 kts | 202° |
| 2026-05-05 16:15 | 47.46272 | -12.75246 | 37172 ft | 457 kts | 201° |
| 2026-05-05 16:16 | 47.34300 | -12.81593 | 37173 ft | 457 kts | 201° |
| 2026-05-05 16:17 | 47.25310 | -12.86339 | 37173 ft | 457 kts | 201° |
| 2026-05-05 16:18 | 47.16314 | -12.91071 | 37174 ft | 458 kts | 201° |
| 2026-05-05 16:19 | 47.07359 | -12.95765 | 37177 ft | 458 kts | 201° |
| 2026-05-05 16:19 | 46.98354 | -13.00468 | 37181 ft | 458 kts | 201° |
| 2026-05-05 16:20 | 46.86345 | -13.06714 | 37183 ft | 458 kts | 201° |
| 2026-05-05 16:22 | 46.71319 | -13.14487 | 37186 ft | 458 kts | 201° |
| 2026-05-05 16:23 | 46.59291 | -13.20676 | 37182 ft | 458 kts | 201° |
| 2026-05-05 16:23 | 46.50318 | -13.25274 | 37185 ft | 458 kts | 201° |
| 2026-05-05 16:24 | 46.44303 | -13.28347 | 37186 ft | 458 kts | 201° |
| 2026-05-05 16:25 | 46.35317 | -13.32925 | 37187 ft | 459 kts | 201° |
| 2026-05-05 16:25 | 46.26290 | -13.37508 | 37190 ft | 458 kts | 201° |
| 2026-05-05 16:26 | 46.14255 | -13.43593 | 37192 ft | 458 kts | 201° |
| 2026-05-05 16:27 | 46.08235 | -13.46626 | 37196 ft | 458 kts | 201° |
| 2026-05-05 16:27 | 46.02216 | -13.49652 | 37195 ft | 458 kts | 201° |
| 2026-05-05 16:28 | 45.96192 | -13.52673 | 37196 ft | 458 kts | 201° |
| 2026-05-05 16:28 | 45.90237 | -13.55653 | 37184 ft | 458 kts | 201° |
| 2026-05-05 16:29 | 45.84217 | -13.58658 | 37197 ft | 458 kts | 201° |
| 2026-05-05 16:29 | 45.78200 | -13.61656 | 37195 ft | 458 kts | 201° |
| 2026-05-05 16:30 | 45.72185 | -13.64645 | 37200 ft | 458 kts | 201° |
| 2026-05-05 16:30 | 45.66171 | -13.67627 | 37201 ft | 458 kts | 201° |
| 2026-05-05 16:31 | 45.60154 | -13.70603 | 37201 ft | 458 kts | 201° |
| 2026-05-05 16:31 | 45.54137 | -13.73574 | 37200 ft | 458 kts | 201° |
| 2026-05-05 16:32 | 45.48159 | -13.76517 | 37190 ft | 457 kts | 201° |
| 2026-05-05 16:32 | 45.42146 | -13.79472 | 37203 ft | 458 kts | 201° |
| 2026-05-05 16:33 | 45.36120 | -13.82426 | 37198 ft | 458 kts | 201° |
| 2026-05-05 16:33 | 45.30102 | -13.85370 | 37199 ft | 458 kts | 201° |
| 2026-05-05 16:34 | 45.24077 | -13.88311 | 37210 ft | 458 kts | 201° |
| 2026-05-05 16:34 | 45.18046 | -13.91248 | 37210 ft | 458 kts | 201° |
| 2026-05-05 16:35 | 45.12016 | -13.94178 | 37211 ft | 458 kts | 201° |
| 2026-05-05 16:35 | 45.05982 | -13.97105 | 37205 ft | 458 kts | 201° |
| 2026-05-05 16:36 | 44.99952 | -14.00022 | 37211 ft | 458 kts | 201° |
| 2026-05-05 16:36 | 44.94996 | -14.02622 | 37209 ft | 457 kts | 204° |
| 2026-05-05 16:37 | 44.89088 | -14.05964 | 37208 ft | 457 kts | 204° |
| 2026-05-05 16:37 | 44.83180 | -14.09305 | 37211 ft | 458 kts | 204° |
| 2026-05-05 16:38 | 44.77257 | -14.12605 | 37206 ft | 458 kts | 204° |
| 2026-05-05 16:38 | 44.71327 | -14.15879 | 37198 ft | 458 kts | 204° |
| 2026-05-05 16:39 | 44.65395 | -14.19141 | 37211 ft | 458 kts | 204° |
| 2026-05-05 16:39 | 44.59460 | -14.22399 | 37212 ft | 458 kts | 204° |
| 2026-05-05 16:40 | 44.53519 | -14.25653 | 37214 ft | 458 kts | 204° |
| 2026-05-05 16:40 | 44.47576 | -14.28902 | 37210 ft | 459 kts | 204° |
| 2026-05-05 16:41 | 44.41636 | -14.32142 | 37217 ft | 459 kts | 204° |
| 2026-05-05 16:41 | 44.35688 | -14.35380 | 37198 ft | 459 kts | 204° |
| 2026-05-05 16:42 | 44.29741 | -14.38610 | 37213 ft | 458 kts | 204° |
| 2026-05-05 16:42 | 44.23796 | -14.41832 | 37220 ft | 458 kts | 204° |
| 2026-05-05 16:43 | 44.17853 | -14.45046 | 37219 ft | 458 kts | 204° |
| 2026-05-05 16:43 | 44.11947 | -14.48233 | 37218 ft | 458 kts | 204° |
| 2026-05-05 16:44 | 44.05998 | -14.51436 | 37214 ft | 458 kts | 204° |
| 2026-05-05 16:44 | 44.00055 | -14.54629 | 37222 ft | 458 kts | 204° |
| 2026-05-05 16:45 | 43.94115 | -14.57814 | 37204 ft | 458 kts | 204° |
| 2026-05-05 16:45 | 43.88175 | -14.60992 | 37221 ft | 457 kts | 204° |
| 2026-05-05 16:46 | 43.82233 | -14.64164 | 37222 ft | 457 kts | 204° |
| 2026-05-05 16:46 | 43.76293 | -14.67328 | 37227 ft | 457 kts | 204° |
| 2026-05-05 16:47 | 43.70354 | -14.70486 | 37223 ft | 457 kts | 204° |
| 2026-05-05 16:47 | 43.64413 | -14.73637 | 37220 ft | 458 kts | 204° |
| 2026-05-05 16:48 | 43.58463 | -14.76786 | 37213 ft | 458 kts | 204° |
| 2026-05-05 16:48 | 43.52558 | -14.79905 | 37229 ft | 458 kts | 204° |
| 2026-05-05 16:49 | 43.46572 | -14.83060 | 37232 ft | 458 kts | 204° |
| 2026-05-05 16:49 | 43.40663 | -14.86168 | 37225 ft | 458 kts | 204° |
| 2026-05-05 16:50 | 43.34712 | -14.89291 | 37224 ft | 458 kts | 204° |
| 2026-05-05 16:50 | 43.28765 | -14.92406 | 37223 ft | 458 kts | 204° |
| 2026-05-05 16:51 | 43.22813 | -14.95517 | 37211 ft | 457 kts | 204° |
| 2026-05-05 16:51 | 43.16876 | -14.98613 | 37224 ft | 457 kts | 204° |
| 2026-05-05 16:52 | 43.10934 | -15.01706 | 37233 ft | 456 kts | 204° |
| 2026-05-05 16:52 | 43.05000 | -15.04788 | 37231 ft | 456 kts | 204° |
| 2026-05-05 16:53 | 42.99061 | -15.07867 | 37227 ft | 456 kts | 204° |
| 2026-05-05 16:53 | 42.93128 | -15.10936 | 37231 ft | 456 kts | 204° |
| 2026-05-05 16:54 | 42.87196 | -15.13998 | 37230 ft | 456 kts | 204° |
| 2026-05-05 16:54 | 42.81264 | -15.17054 | 37223 ft | 456 kts | 204° |
| 2026-05-05 16:55 | 42.75369 | -15.20084 | 37233 ft | 456 kts | 204° |
| 2026-05-05 16:55 | 42.69433 | -15.23130 | 37236 ft | 456 kts | 204° |
| 2026-05-05 16:56 | 42.63493 | -15.26170 | 37237 ft | 456 kts | 204° |
| 2026-05-05 16:56 | 42.57554 | -15.29205 | 37231 ft | 456 kts | 203° |
| 2026-05-05 16:57 | 42.51619 | -15.32231 | 37237 ft | 456 kts | 203° |
| 2026-05-05 16:57 | 42.45680 | -15.35253 | 37236 ft | 455 kts | 203° |
| 2026-05-05 16:58 | 42.39754 | -15.38263 | 37239 ft | 455 kts | 203° |
| 2026-05-05 16:58 | 42.33865 | -15.41248 | 37241 ft | 455 kts | 203° |
| 2026-05-05 16:59 | 42.27941 | -15.44244 | 37238 ft | 455 kts | 203° |
| 2026-05-05 16:59 | 42.22018 | -15.47234 | 37239 ft | 454 kts | 203° |
| 2026-05-05 17:00 | 42.16101 | -15.50215 | 37229 ft | 454 kts | 203° |
| 2026-05-05 17:00 | 42.10180 | -15.53193 | 37242 ft | 454 kts | 203° |
| 2026-05-05 17:01 | 42.04269 | -15.56160 | 37240 ft | 453 kts | 203° |
| 2026-05-05 17:01 | 41.98230 | -15.58618 | 37229 ft | 457 kts | 189° |
| 2026-05-05 17:02 | 41.91876 | -15.59352 | 37234 ft | 459 kts | 186° |
| 2026-05-05 17:02 | 41.85510 | -15.59953 | 37240 ft | 458 kts | 186° |
| 2026-05-05 17:03 | 41.79151 | -15.60598 | 37236 ft | 459 kts | 187° |
| 2026-05-05 17:03 | 41.72788 | -15.61282 | 37236 ft | 459 kts | 187° |
| 2026-05-05 17:04 | 41.66427 | -15.61978 | 37240 ft | 459 kts | 187° |
| 2026-05-05 17:04 | 41.60054 | -15.62675 | 37239 ft | 459 kts | 187° |
| 2026-05-05 17:05 | 41.53731 | -15.63365 | 37225 ft | 459 kts | 187° |
| 2026-05-05 17:05 | 41.47364 | -15.64057 | 37241 ft | 459 kts | 187° |
| 2026-05-05 17:06 | 41.40993 | -15.64747 | 37236 ft | 459 kts | 187° |
| 2026-05-05 17:06 | 41.34628 | -15.65436 | 37237 ft | 459 kts | 187° |
| 2026-05-05 17:07 | 41.28261 | -15.66123 | 37239 ft | 459 kts | 187° |
| 2026-05-05 17:07 | 41.21898 | -15.66809 | 37235 ft | 459 kts | 187° |
| 2026-05-05 17:08 | 41.15532 | -15.67494 | 37240 ft | 459 kts | 187° |
| 2026-05-05 17:08 | 41.09170 | -15.68177 | 37236 ft | 458 kts | 187° |
| 2026-05-05 17:09 | 41.02817 | -15.68857 | 37237 ft | 458 kts | 187° |
| 2026-05-05 17:09 | 40.96475 | -15.69535 | 37240 ft | 457 kts | 187° |
| 2026-05-05 17:10 | 40.90136 | -15.70212 | 37231 ft | 457 kts | 187° |
| 2026-05-05 17:10 | 40.83812 | -15.70885 | 37241 ft | 456 kts | 187° |
| 2026-05-05 17:11 | 40.77501 | -15.71556 | 37238 ft | 455 kts | 187° |
| 2026-05-05 17:11 | 40.71186 | -15.72227 | 37239 ft | 455 kts | 187° |
| 2026-05-05 17:12 | 40.64885 | -15.72894 | 37232 ft | 454 kts | 187° |
| 2026-05-05 17:12 | 40.58598 | -15.73559 | 37231 ft | 453 kts | 187° |
| 2026-05-05 17:13 | 40.52358 | -15.74217 | 37235 ft | 452 kts | 187° |
| 2026-05-05 17:13 | 40.46086 | -15.74878 | 37237 ft | 452 kts | 187° |
| 2026-05-05 17:14 | 40.39821 | -15.75536 | 37237 ft | 452 kts | 187° |
| 2026-05-05 17:14 | 40.33560 | -15.76193 | 37240 ft | 451 kts | 187° |
| 2026-05-05 17:15 | 40.27301 | -15.76849 | 37235 ft | 451 kts | 187° |
| 2026-05-05 17:15 | 40.21040 | -15.77503 | 37240 ft | 451 kts | 187° |
| 2026-05-05 17:16 | 40.14786 | -15.78156 | 37233 ft | 451 kts | 187° |
| 2026-05-05 17:16 | 40.08534 | -15.78807 | 37235 ft | 451 kts | 187° |
| 2026-05-05 17:17 | 40.02284 | -15.79457 | 37230 ft | 451 kts | 187° |
| 2026-05-05 17:17 | 39.96040 | -15.80105 | 37235 ft | 450 kts | 187° |
| 2026-05-05 17:18 | 39.89795 | -15.80752 | 37233 ft | 450 kts | 187° |
| 2026-05-05 17:18 | 39.83556 | -15.81397 | 37234 ft | 450 kts | 187° |
| 2026-05-05 17:19 | 39.77316 | -15.82041 | 37231 ft | 449 kts | 187° |
| 2026-05-05 17:19 | 39.71088 | -15.82682 | 37230 ft | 449 kts | 187° |
| 2026-05-05 17:20 | 39.64865 | -15.83322 | 37234 ft | 448 kts | 187° |
| 2026-05-05 17:20 | 39.58686 | -15.83956 | 37233 ft | 448 kts | 187° |
| 2026-05-05 17:21 | 39.52476 | -15.84593 | 37234 ft | 448 kts | 187° |
| 2026-05-05 17:22 | 39.43159 | -15.85545 | 37231 ft | 447 kts | 187° |
| 2026-05-05 17:22 | 39.36955 | -15.86178 | 37223 ft | 447 kts | 187° |
| 2026-05-05 17:23 | 39.30755 | -15.86809 | 37229 ft | 447 kts | 187° |
| 2026-05-05 17:23 | 39.24551 | -15.87440 | 37228 ft | 447 kts | 187° |
| 2026-05-05 17:24 | 39.18350 | -15.88069 | 37230 ft | 447 kts | 187° |
| 2026-05-05 17:24 | 39.12150 | -15.88697 | 37227 ft | 447 kts | 187° |
| 2026-05-05 17:25 | 39.05955 | -15.89324 | 37224 ft | 447 kts | 187° |
| 2026-05-05 17:25 | 38.99752 | -15.89950 | 37226 ft | 447 kts | 187° |
| 2026-05-05 17:26 | 38.93561 | -15.90573 | 37227 ft | 446 kts | 187° |
| 2026-05-05 17:26 | 38.87375 | -15.91195 | 37231 ft | 446 kts | 187° |
| 2026-05-05 17:27 | 38.81222 | -15.91813 | 37218 ft | 446 kts | 187° |
| 2026-05-05 17:27 | 38.75046 | -15.92432 | 37220 ft | 445 kts | 187° |
| 2026-05-05 17:28 | 38.68868 | -15.93050 | 37218 ft | 445 kts | 187° |
| 2026-05-05 17:28 | 38.62703 | -15.93666 | 37224 ft | 444 kts | 187° |
| 2026-05-05 17:29 | 38.56544 | -15.94280 | 37219 ft | 444 kts | 187° |
| 2026-05-05 17:29 | 38.51427 | -15.94789 | 37224 ft | 443 kts | 187° |
| 2026-05-05 17:30 | 38.45279 | -15.95400 | 37216 ft | 443 kts | 188° |
| 2026-05-05 17:30 | 38.39150 | -15.96008 | 37220 ft | 442 kts | 188° |
| 2026-05-05 17:31 | 38.33020 | -15.96615 | 37222 ft | 441 kts | 188° |
| 2026-05-05 17:31 | 38.26906 | -15.97220 | 37220 ft | 440 kts | 188° |
| 2026-05-05 17:32 | 38.20803 | -15.97822 | 37214 ft | 440 kts | 188° |
| 2026-05-05 17:32 | 38.14705 | -15.98423 | 37214 ft | 439 kts | 188° |
| 2026-05-05 17:33 | 38.08614 | -15.99023 | 37219 ft | 439 kts | 188° |
| 2026-05-05 17:33 | 38.02529 | -15.99621 | 37211 ft | 439 kts | 188° |
| 2026-05-05 17:34 | 37.96445 | -16.00217 | 37214 ft | 438 kts | 188° |
| 2026-05-05 17:34 | 37.90365 | -16.00813 | 37229 ft | 439 kts | 188° |
| 2026-05-05 17:35 | 37.84273 | -16.01408 | 37212 ft | 439 kts | 188° |
| 2026-05-05 17:35 | 37.78171 | -16.02004 | 37196 ft | 440 kts | 188° |
| 2026-05-05 17:36 | 37.72065 | -16.02599 | 37213 ft | 440 kts | 188° |
| 2026-05-05 17:36 | 37.65949 | -16.03193 | 37209 ft | 441 kts | 188° |
| 2026-05-05 17:37 | 37.59875 | -16.03783 | 37207 ft | 441 kts | 188° |
| 2026-05-05 17:37 | 37.53754 | -16.04376 | 37202 ft | 441 kts | 188° |
| 2026-05-05 17:38 | 37.47638 | -16.04968 | 37205 ft | 441 kts | 188° |
| 2026-05-05 17:38 | 37.41530 | -16.05558 | 37212 ft | 440 kts | 188° |
| 2026-05-05 17:39 | 37.35423 | -16.06147 | 37208 ft | 439 kts | 188° |
| 2026-05-05 17:39 | 37.29333 | -16.06733 | 37207 ft | 439 kts | 188° |
| 2026-05-05 17:40 | 37.23255 | -16.07317 | 37207 ft | 438 kts | 188° |
| 2026-05-05 17:40 | 37.17178 | -16.07901 | 37201 ft | 437 kts | 188° |
| 2026-05-05 17:41 | 37.11115 | -16.08482 | 37209 ft | 437 kts | 188° |
| 2026-05-05 17:41 | 37.05052 | -16.09062 | 37202 ft | 436 kts | 188° |
| 2026-05-05 17:42 | 36.99002 | -16.09640 | 37199 ft | 436 kts | 188° |
| 2026-05-05 17:42 | 36.92961 | -16.10216 | 37202 ft | 436 kts | 188° |
| 2026-05-05 17:43 | 36.86917 | -16.10792 | 37202 ft | 436 kts | 188° |
| 2026-05-05 17:43 | 36.80874 | -16.11366 | 37204 ft | 435 kts | 188° |
| 2026-05-05 17:44 | 36.74832 | -16.11940 | 37199 ft | 435 kts | 188° |
| 2026-05-05 17:44 | 36.68790 | -16.12513 | 37201 ft | 435 kts | 188° |
| 2026-05-05 17:45 | 36.62745 | -16.13085 | 37202 ft | 436 kts | 188° |
| 2026-05-05 17:45 | 36.56742 | -16.13652 | 37188 ft | 435 kts | 188° |
| 2026-05-05 17:46 | 36.50704 | -16.14221 | 37193 ft | 435 kts | 189° |
| 2026-05-05 17:46 | 36.44666 | -16.14790 | 37197 ft | 435 kts | 188° |
| 2026-05-05 17:47 | 36.38633 | -16.15357 | 37196 ft | 435 kts | 189° |
| 2026-05-05 17:47 | 36.32597 | -16.15924 | 37193 ft | 435 kts | 189° |
| 2026-05-05 17:48 | 36.26567 | -16.16489 | 37197 ft | 434 kts | 189° |
| 2026-05-05 17:48 | 36.20541 | -16.17053 | 37189 ft | 434 kts | 189° |
| 2026-05-05 17:49 | 36.14517 | -16.17616 | 37188 ft | 434 kts | 189° |
| 2026-05-05 17:49 | 36.08509 | -16.18177 | 37185 ft | 433 kts | 189° |
| 2026-05-05 17:50 | 36.02504 | -16.18736 | 37188 ft | 432 kts | 189° |
| 2026-05-05 17:50 | 35.96500 | -16.19295 | 37186 ft | 432 kts | 189° |
| 2026-05-05 17:51 | 35.90510 | -16.19851 | 37186 ft | 432 kts | 189° |
| 2026-05-05 17:51 | 35.84561 | -16.20403 | 37179 ft | 431 kts | 189° |
| 2026-05-05 17:52 | 35.78582 | -16.20957 | 37192 ft | 431 kts | 189° |
| 2026-05-05 17:52 | 35.72560 | -16.21514 | 37185 ft | 431 kts | 189° |
| 2026-05-05 17:53 | 35.66585 | -16.22065 | 37185 ft | 431 kts | 189° |
| 2026-05-05 17:53 | 35.60641 | -16.22614 | 37175 ft | 431 kts | 189° |
| 2026-05-05 17:54 | 35.54657 | -16.23165 | 37180 ft | 431 kts | 189° |
| 2026-05-05 17:54 | 35.48680 | -16.23697 | 37188 ft | 431 kts | 189° |
| 2026-05-05 17:55 | 35.42687 | -16.24187 | 37178 ft | 431 kts | 189° |
| 2026-05-05 17:55 | 35.36696 | -16.24671 | 37164 ft | 431 kts | 188° |
| 2026-05-05 17:56 | 35.30708 | -16.25158 | 37182 ft | 432 kts | 189° |
| 2026-05-05 17:56 | 35.24713 | -16.25648 | 37175 ft | 432 kts | 189° |
| 2026-05-05 17:57 | 35.18712 | -16.26139 | 37177 ft | 432 kts | 189° |
| 2026-05-05 17:57 | 35.12710 | -16.26630 | 37164 ft | 432 kts | 188° |
| 2026-05-05 17:58 | 35.06735 | -16.27117 | 37176 ft | 432 kts | 188° |
| 2026-05-05 17:58 | 35.00736 | -16.27605 | 37171 ft | 432 kts | 188° |
| 2026-05-05 17:59 | 34.94728 | -16.28094 | 37171 ft | 432 kts | 188° |
| 2026-05-05 17:59 | 34.88722 | -16.28581 | 37170 ft | 432 kts | 188° |
| 2026-05-05 18:00 | 34.82714 | -16.29068 | 37165 ft | 432 kts | 188° |
| 2026-05-05 18:00 | 34.76717 | -16.29554 | 37170 ft | 432 kts | 188° |
| 2026-05-05 18:01 | 34.70720 | -16.30038 | 37166 ft | 432 kts | 188° |
| 2026-05-05 18:01 | 34.64717 | -16.30523 | 37161 ft | 432 kts | 188° |
| 2026-05-05 18:02 | 34.58765 | -16.31002 | 37155 ft | 431 kts | 188° |
| 2026-05-05 18:02 | 34.52785 | -16.31484 | 37156 ft | 430 kts | 188° |
| 2026-05-05 18:03 | 34.46810 | -16.31964 | 37158 ft | 430 kts | 188° |
| 2026-05-05 18:03 | 34.40838 | -16.32444 | 37156 ft | 430 kts | 188° |
| 2026-05-05 18:04 | 34.34867 | -16.32922 | 37152 ft | 430 kts | 188° |
| 2026-05-05 18:04 | 34.28907 | -16.33399 | 37151 ft | 430 kts | 188° |
| 2026-05-05 18:05 | 34.22944 | -16.33876 | 37148 ft | 429 kts | 188° |
| 2026-05-05 18:05 | 34.16977 | -16.34352 | 37149 ft | 429 kts | 188° |
| 2026-05-05 18:06 | 34.11015 | -16.34827 | 37141 ft | 429 kts | 188° |
| 2026-05-05 18:06 | 34.05056 | -16.35301 | 37147 ft | 429 kts | 188° |
| 2026-05-05 18:07 | 33.99096 | -16.35775 | 37141 ft | 429 kts | 188° |
| 2026-05-05 18:07 | 33.93145 | -16.36247 | 37143 ft | 429 kts | 188° |
| 2026-05-05 18:08 | 33.87178 | -16.36720 | 37118 ft | 429 kts | 189° |
| 2026-05-05 18:08 | 33.81224 | -16.37191 | 37133 ft | 429 kts | 189° |
| 2026-05-05 18:09 | 33.75370 | -16.37653 | 37140 ft | 429 kts | 189° |
| 2026-05-05 18:09 | 33.69411 | -16.38123 | 37135 ft | 429 kts | 189° |
| 2026-05-05 18:10 | 33.63450 | -16.38593 | 37132 ft | 429 kts | 189° |
| 2026-05-05 18:10 | 33.57491 | -16.39062 | 37137 ft | 429 kts | 189° |
| 2026-05-05 18:11 | 33.51536 | -16.39530 | 37121 ft | 429 kts | 189° |
| 2026-05-05 18:11 | 33.45580 | -16.39997 | 37129 ft | 429 kts | 189° |
| 2026-05-05 18:12 | 33.39629 | -16.40464 | 37126 ft | 429 kts | 189° |
| 2026-05-05 18:12 | 33.33681 | -16.40929 | 37115 ft | 428 kts | 189° |
| 2026-05-05 18:13 | 33.27742 | -16.41393 | 37121 ft | 428 kts | 189° |
| 2026-05-05 18:13 | 33.21771 | -16.41861 | 37095 ft | 431 kts | 189° |
| 2026-05-05 18:14 | 33.15788 | -16.42327 | 37096 ft | 431 kts | 189° |
| 2026-05-05 18:14 | 33.09849 | -16.42788 | 37086 ft | 430 kts | 189° |
| 2026-05-05 18:15 | 33.03892 | -16.43250 | 37102 ft | 428 kts | 189° |
| 2026-05-05 18:15 | 32.97963 | -16.43710 | 37098 ft | 426 kts | 189° |
| 2026-05-05 18:16 | 32.92044 | -16.44169 | 37112 ft | 427 kts | 189° |
| 2026-05-05 18:16 | 32.86100 | -16.44631 | 37108 ft | 429 kts | 189° |
| 2026-05-05 18:17 | 32.80131 | -16.45093 | 37091 ft | 430 kts | 188° |
| 2026-05-05 18:17 | 32.74162 | -16.45553 | 37088 ft | 429 kts | 189° |
| 2026-05-05 18:18 | 32.68221 | -16.46009 | 37083 ft | 426 kts | 189° |
| 2026-05-05 18:18 | 32.62333 | -16.46461 | 37095 ft | 423 kts | 189° |
| 2026-05-05 18:19 | 32.56475 | -16.46912 | 37083 ft | 422 kts | 189° |
| 2026-05-05 18:19 | 32.51606 | -16.47288 | 37074 ft | 422 kts | 189° |
| 2026-05-05 18:20 | 32.45752 | -16.47737 | 37079 ft | 420 kts | 189° |
| 2026-05-05 18:20 | 32.39922 | -16.48184 | 37085 ft | 419 kts | 189° |
| 2026-05-05 18:21 | 32.34093 | -16.48630 | 37077 ft | 420 kts | 189° |
| 2026-05-05 18:21 | 32.28252 | -16.49077 | 37077 ft | 421 kts | 189° |
| 2026-05-05 18:22 | 32.22398 | -16.49524 | 37071 ft | 422 kts | 189° |
| 2026-05-05 18:22 | 32.16520 | -16.49972 | 37063 ft | 424 kts | 189° |
| 2026-05-05 18:23 | 32.10628 | -16.50421 | 37065 ft | 425 kts | 189° |
| 2026-05-05 18:23 | 32.04713 | -16.50871 | 37045 ft | 426 kts | 189° |
| 2026-05-05 18:24 | 31.98831 | -16.51317 | 37057 ft | 426 kts | 189° |
| 2026-05-05 18:24 | 31.92900 | -16.51767 | 37057 ft | 427 kts | 189° |
| 2026-05-05 18:25 | 31.86961 | -16.52216 | 37059 ft | 428 kts | 189° |
| 2026-05-05 18:25 | 31.81022 | -16.52665 | 37056 ft | 428 kts | 189° |
| 2026-05-05 18:26 | 31.75085 | -16.53113 | 37052 ft | 427 kts | 189° |
| 2026-05-05 18:26 | 31.69161 | -16.53560 | 37052 ft | 427 kts | 189° |
| 2026-05-05 18:27 | 31.63230 | -16.54007 | 37051 ft | 427 kts | 189° |
| 2026-05-05 18:27 | 31.57310 | -16.54453 | 37061 ft | 426 kts | 189° |
| 2026-05-05 18:28 | 31.48430 | -16.55120 | 37048 ft | 426 kts | 189° |
| 2026-05-05 18:28 | 31.42526 | -16.55563 | 37049 ft | 425 kts | 189° |
| 2026-05-05 18:29 | 31.36591 | -16.55562 | 37059 ft | 429 kts | 181° |
| 2026-05-05 18:29 | 31.30632 | -16.54856 | 37051 ft | 431 kts | 179° |
| 2026-05-05 18:30 | 31.24682 | -16.54110 | 37031 ft | 429 kts | 180° |
| 2026-05-05 18:30 | 31.18786 | -16.53448 | 37042 ft | 428 kts | 180° |
| 2026-05-05 18:31 | 31.12859 | -16.52828 | 37052 ft | 427 kts | 181° |
| 2026-05-05 18:31 | 31.06946 | -16.52222 | 37051 ft | 427 kts | 181° |
| 2026-05-05 18:32 | 31.01036 | -16.51619 | 37050 ft | 426 kts | 181° |
| 2026-05-05 18:32 | 30.95131 | -16.51015 | 37051 ft | 425 kts | 181° |
| 2026-05-05 18:33 | 30.89240 | -16.50413 | 37047 ft | 425 kts | 181° |
| 2026-05-05 18:33 | 30.83359 | -16.49812 | 37048 ft | 424 kts | 181° |
| 2026-05-05 18:34 | 30.77493 | -16.49213 | 37051 ft | 423 kts | 181° |
| 2026-05-05 18:34 | 30.71630 | -16.48615 | 37030 ft | 422 kts | 182° |
| 2026-05-05 18:35 | 30.65785 | -16.48020 | 37039 ft | 421 kts | 182° |
| 2026-05-05 18:35 | 30.59963 | -16.47428 | 37047 ft | 419 kts | 182° |
| 2026-05-05 18:36 | 30.54153 | -16.46838 | 37048 ft | 418 kts | 182° |
| 2026-05-05 18:36 | 30.48401 | -16.46255 | 37048 ft | 417 kts | 182° |
| 2026-05-05 18:37 | 30.42629 | -16.45669 | 37045 ft | 415 kts | 184° |
| 2026-05-05 18:37 | 30.36879 | -16.45088 | 37046 ft | 414 kts | 184° |
| 2026-05-05 18:38 | 30.31151 | -16.44509 | 37047 ft | 412 kts | 184° |
| 2026-05-05 18:38 | 30.25447 | -16.43933 | 37048 ft | 411 kts | 184° |
| 2026-05-05 18:39 | 30.19751 | -16.43359 | 37046 ft | 410 kts | 184° |
| 2026-05-05 18:39 | 30.14074 | -16.42787 | 37041 ft | 408 kts | 185° |
| 2026-05-05 18:40 | 30.08418 | -16.42218 | 37045 ft | 407 kts | 185° |
| 2026-05-05 18:40 | 30.02774 | -16.41652 | 37048 ft | 407 kts | 185° |
| 2026-05-05 18:41 | 29.97177 | -16.41090 | 37044 ft | 406 kts | 185° |
| 2026-05-05 18:41 | 29.91508 | -16.40523 | 37016 ft | 406 kts | 185° |
| 2026-05-05 18:42 | 29.85926 | -16.39963 | 37031 ft | 406 kts | 186° |
| 2026-05-05 18:42 | 29.80307 | -16.39401 | 37041 ft | 405 kts | 186° |
| 2026-05-05 18:43 | 29.74688 | -16.38840 | 37039 ft | 405 kts | 186° |
| 2026-05-05 18:43 | 29.69075 | -16.38280 | 37041 ft | 405 kts | 186° |
| 2026-05-05 18:44 | 29.63465 | -16.37721 | 37038 ft | 404 kts | 186° |
| 2026-05-05 18:44 | 29.60723 | -16.37816 | 37023 ft | 384 kts | 202° |
| 2026-05-05 18:44 | 29.58229 | -16.38733 | 37042 ft | 374 kts | 211° |
| 2026-05-05 18:45 | 29.53961 | -16.41990 | 37044 ft | 370 kts | 224° |
| 2026-05-05 18:45 | 29.50020 | -16.45769 | 37031 ft | 370 kts | 225° |
| 2026-05-05 18:46 | 29.48071 | -16.47646 | 36870 ft | 363 kts | 224° |
| 2026-05-05 18:46 | 29.46156 | -16.49478 | 36645 ft | 353 kts | 224° |
| 2026-05-05 18:46 | 29.44273 | -16.51270 | 36260 ft | 349 kts | 224° |
| 2026-05-05 18:46 | 29.42416 | -16.53030 | 35906 ft | 345 kts | 224° |
| 2026-05-05 18:47 | 29.40576 | -16.54770 | 35538 ft | 342 kts | 224° |
| 2026-05-05 18:47 | 29.38750 | -16.56493 | 35161 ft | 339 kts | 224° |
| 2026-05-05 18:47 | 29.36934 | -16.58204 | 34796 ft | 336 kts | 224° |
| 2026-05-05 18:47 | 29.35131 | -16.59900 | 34432 ft | 334 kts | 224° |
| 2026-05-05 18:48 | 29.33346 | -16.61578 | 34066 ft | 331 kts | 224° |
| 2026-05-05 18:48 | 29.31572 | -16.63245 | 33660 ft | 328 kts | 224° |
| 2026-05-05 18:48 | 29.29814 | -16.64895 | 33280 ft | 325 kts | 224° |
| 2026-05-05 18:48 | 29.28077 | -16.66524 | 32931 ft | 321 kts | 224° |
| 2026-05-05 18:49 | 29.26352 | -16.68142 | 32569 ft | 319 kts | 224° |
| 2026-05-05 18:49 | 29.24645 | -16.69743 | 32221 ft | 316 kts | 223° |
| 2026-05-05 18:49 | 29.22952 | -16.71329 | 31880 ft | 314 kts | 223° |
| 2026-05-05 18:49 | 29.21269 | -16.72906 | 31531 ft | 312 kts | 223° |
| 2026-05-05 18:50 | 29.19594 | -16.74474 | 31190 ft | 310 kts | 223° |
| 2026-05-05 18:50 | 29.17933 | -16.76028 | 30855 ft | 308 kts | 223° |
| 2026-05-05 18:50 | 29.16278 | -16.77577 | 30522 ft | 307 kts | 223° |
| 2026-05-05 18:50 | 29.14629 | -16.79119 | 30193 ft | 305 kts | 222° |
| 2026-05-05 18:51 | 29.12988 | -16.80653 | 29831 ft | 305 kts | 222° |
| 2026-05-05 18:51 | 29.11333 | -16.82199 | 29462 ft | 312 kts | 222° |
| 2026-05-05 18:51 | 29.09642 | -16.83783 | 29096 ft | 324 kts | 222° |
| 2026-05-05 18:51 | 29.07888 | -16.85421 | 28700 ft | 326 kts | 222° |
| 2026-05-05 18:52 | 29.06140 | -16.87050 | 28316 ft | 323 kts | 222° |
| 2026-05-05 18:52 | 29.04405 | -16.88666 | 27943 ft | 320 kts | 222° |
| 2026-05-05 18:52 | 29.02685 | -16.90267 | 27557 ft | 318 kts | 222° |
| 2026-05-05 18:52 | 29.00981 | -16.91853 | 27260 ft | 313 kts | 222° |
| 2026-05-05 18:53 | 28.99300 | -16.93417 | 26898 ft | 311 kts | 222° |
| 2026-05-05 18:53 | 28.97632 | -16.94970 | 26549 ft | 308 kts | 222° |
| 2026-05-05 18:53 | 28.95979 | -16.96507 | 26215 ft | 306 kts | 222° |
| 2026-05-05 18:53 | 28.94332 | -16.98039 | 25868 ft | 303 kts | 222° |
| 2026-05-05 18:54 | 28.92566 | -16.99347 | 25325 ft | 306 kts | 211° |
| 2026-05-05 18:54 | 28.90574 | -17.00258 | 24664 ft | 312 kts | 204° |
| 2026-05-05 18:54 | 28.88451 | -17.00853 | 24050 ft | 317 kts | 197° |
| 2026-05-05 18:54 | 28.86280 | -17.01278 | 23508 ft | 316 kts | 196° |
| 2026-05-05 18:55 | 28.84113 | -17.01681 | 22901 ft | 315 kts | 196° |
| 2026-05-05 18:55 | 28.81928 | -17.02087 | 22187 ft | 323 kts | 196° |
| 2026-05-05 18:55 | 28.79668 | -17.02512 | 21503 ft | 331 kts | 195° |
| 2026-05-05 18:55 | 28.77392 | -17.02941 | 21046 ft | 331 kts | 195° |
| 2026-05-05 18:56 | 28.75126 | -17.03367 | 20685 ft | 329 kts | 195° |
| 2026-05-05 18:56 | 28.72905 | -17.03786 | 20312 ft | 327 kts | 195° |
| 2026-05-05 18:56 | 28.70686 | -17.04205 | 20118 ft | 319 kts | 196° |
| 2026-05-05 18:56 | 28.68520 | -17.04614 | 19793 ft | 312 kts | 197° |
| 2026-05-05 18:57 | 28.66346 | -17.04849 | 19083 ft | 321 kts | 186° |
| 2026-05-05 18:57 | 28.64090 | -17.04578 | 18405 ft | 329 kts | 179° |
| 2026-05-05 18:57 | 28.61822 | -17.04209 | 17742 ft | 328 kts | 179° |
| 2026-05-05 18:57 | 28.59565 | -17.03835 | 17196 ft | 329 kts | 178° |
| 2026-05-05 18:58 | 28.57283 | -17.03462 | 16585 ft | 334 kts | 178° |
| 2026-05-05 18:58 | 28.54974 | -17.03090 | 16131 ft | 335 kts | 178° |
| 2026-05-05 18:58 | 28.52681 | -17.02723 | 15770 ft | 332 kts | 178° |
| 2026-05-05 18:58 | 28.50403 | -17.02361 | 15406 ft | 329 kts | 177° |
| 2026-05-05 18:59 | 28.48141 | -17.02005 | 15019 ft | 326 kts | 177° |
| 2026-05-05 18:59 | 28.45910 | -17.01654 | 14473 ft | 322 kts | 177° |
| 2026-05-05 18:59 | 28.43689 | -17.01307 | 13823 ft | 322 kts | 177° |
| 2026-05-05 18:59 | 28.41486 | -17.00963 | 13225 ft | 318 kts | 177° |
| 2026-05-05 19:00 | 28.39297 | -17.00622 | 12568 ft | 317 kts | 176° |
| 2026-05-05 19:00 | 28.37119 | -17.00284 | 11916 ft | 316 kts | 176° |
| 2026-05-05 19:00 | 28.34943 | -16.99946 | 11353 ft | 314 kts | 175° |
| 2026-05-05 19:00 | 28.32759 | -16.99607 | 11180 ft | 318 kts | 175° |
| 2026-05-05 19:01 | 28.30576 | -16.99267 | 11069 ft | 315 kts | 175° |
| 2026-05-05 19:01 | 28.28401 | -16.98929 | 11026 ft | 315 kts | 175° |
| 2026-05-05 19:01 | 28.26285 | -16.98599 | 10760 ft | 309 kts | 175° |
| 2026-05-05 19:01 | 28.24166 | -16.98269 | 10252 ft | 307 kts | 175° |
| 2026-05-05 19:02 | 28.22034 | -16.97939 | 9488 ft | 311 kts | 174° |
| 2026-05-05 19:02 | 28.19887 | -16.97606 | 8843 ft | 311 kts | 174° |
| 2026-05-05 19:02 | 28.17753 | -16.97275 | 8571 ft | 306 kts | 174° |
| 2026-05-05 19:02 | 28.15670 | -16.96765 | 8222 ft | 309 kts | 163° |
| 2026-05-05 19:03 | 28.13666 | -16.95888 | 7947 ft | 309 kts | 159° |
| 2026-05-05 19:03 | 28.11687 | -16.94941 | 7635 ft | 309 kts | 158° |
| 2026-05-05 19:03 | 28.09707 | -16.94000 | 7331 ft | 308 kts | 159° |
| 2026-05-05 19:03 | 28.07724 | -16.93082 | 7025 ft | 307 kts | 159° |
| 2026-05-05 19:04 | 28.05754 | -16.92191 | 6705 ft | 300 kts | 159° |
| 2026-05-05 19:04 | 28.03844 | -16.91338 | 6401 ft | 290 kts | 159° |
| 2026-05-05 19:04 | 28.01995 | -16.90514 | 6106 ft | 281 kts | 159° |
| 2026-05-05 19:04 | 28.00208 | -16.89700 | 5778 ft | 273 kts | 158° |
| 2026-05-05 19:05 | 27.98500 | -16.88888 | 5468 ft | 267 kts | 157° |
| 2026-05-05 19:05 | 27.96818 | -16.88067 | 5173 ft | 260 kts | 152° |
| 2026-05-05 19:05 | 27.95559 | -16.86740 | 5083 ft | 241 kts | 115° |
| 2026-05-05 19:05 | 27.95290 | -16.84959 | 4914 ft | 229 kts | 79° |
| 2026-05-05 19:06 | 27.95659 | -16.83232 | 4637 ft | 225 kts | 74° |
| 2026-05-05 19:06 | 27.96090 | -16.81549 | 4330 ft | 221 kts | 70° |
| 2026-05-05 19:06 | 27.96604 | -16.79920 | 4058 ft | 217 kts | 67° |
| 2026-05-05 19:06 | 27.97143 | -16.78340 | 3793 ft | 213 kts | 67° |
| 2026-05-05 19:07 | 27.97676 | -16.76798 | 3523 ft | 209 kts | 66° |
| 2026-05-05 19:07 | 27.98029 | -16.75781 | 3347 ft | 208 kts | 66° |
| 2026-05-05 19:07 | 27.98730 | -16.73755 | 2964 ft | 205 kts | 66° |
| 2026-05-05 19:07 | 27.99244 | -16.72270 | 2695 ft | 201 kts | 66° |
| 2026-05-05 19:08 | 27.99746 | -16.70820 | 2456 ft | 195 kts | 66° |
| 2026-05-05 19:08 | 28.00233 | -16.69412 | 2187 ft | 186 kts | 66° |
| 2026-05-05 19:08 | 28.00689 | -16.68093 | 1945 ft | 175 kts | 65° |
| 2026-05-05 19:08 | 28.01110 | -16.66878 | 1729 ft | 160 kts | 65° |
| 2026-05-05 19:09 | 28.01496 | -16.65752 | 1527 ft | 148 kts | 66° |
| 2026-05-05 19:09 | 28.01865 | -16.64668 | 1265 ft | 149 kts | 66° |
| 2026-05-05 19:09 | 28.02229 | -16.63597 | 1139 ft | 141 kts | 68° |
| 2026-05-05 19:09 | 28.02572 | -16.62583 | 963 ft | 136 kts | 68° |
| 2026-05-05 19:10 | 28.02931 | -16.61577 | 793 ft | 140 kts | 67° |
| 2026-05-05 19:10 | 28.03300 | -16.60551 | 601 ft | 141 kts | 71° |
| 2026-05-05 19:10 | 28.03648 | -16.59541 | 391 ft | 134 kts | 70° |
| 2026-05-05 19:10 | 28.03874 | -16.58897 | 274 ft | 132 kts | 71° |
| 2026-05-05 19:11 | 28.04204 | -16.57957 | 191 ft | 121 kts | 71° |
| 2026-05-05 19:11 | 28.04458 | -16.57220 | 199 ft | 79 kts | 68° |
| 2026-05-05 19:11 | 28.04608 | -16.56939 | 202 ft | 36 kts | 45° |
| 2026-05-05 19:11 | 28.04707 | -16.56813 | 215 ft | 10 kts | 49° |
| 2026-05-05 19:12 | 28.04763 | -16.56809 | 218 ft | 10 kts | 308° |
| 2026-05-05 19:12 | 28.04767 | -16.56880 | 218 ft | 10 kts | 245° |
| 2026-05-05 19:12 | 28.04745 | -16.56950 | 221 ft | 9 kts | 251° |
| 2026-05-05 19:12 | 28.04721 | -16.57016 | 222 ft | 9 kts | 247° |
| 2026-05-05 19:13 | 28.04698 | -16.57081 | 221 ft | 9 kts | 247° |
| 2026-05-05 19:13 | 28.04672 | -16.57142 | 222 ft | 9 kts | 241° |
| 2026-05-05 19:13 | 28.04643 | -16.57217 | 222 ft | 13 kts | 248° |
| 2026-05-05 19:13 | 28.04603 | -16.57327 | 222 ft | 17 kts | 248° |
| 2026-05-05 19:14 | 28.04562 | -16.57447 | 223 ft | 16 kts | 249° |
| 2026-05-05 19:14 | 28.04522 | -16.57563 | 222 ft | 16 kts | 248° |
| 2026-05-05 19:14 | 28.04483 | -16.57674 | 222 ft | 15 kts | 248° |
| 2026-05-05 19:14 | 28.04445 | -16.57781 | 222 ft | 14 kts | 248° |
| 2026-05-05 19:15 | 28.04409 | -16.57883 | 222 ft | 14 kts | 249° |
| 2026-05-05 19:15 | 28.04401 | -16.57960 | 222 ft | 9 kts | 310° |
| 2026-05-05 19:15 | 28.04437 | -16.57980 | 222 ft | 0 kts | 339° |
| 2026-05-05 19:15 | 28.04439 | -16.57981 | 222 ft | 2 kts | 339° |
| 2026-05-05 19:16 | 28.04448 | -16.57984 | 222 ft | 0 kts | 339° |